createdAt,value
2023-08-21T00:01:49.155Z,100.00
2023-08-21T00:04:16.105Z,100.00
2023-08-21T00:06:43.257Z,100.00
2023-08-21T00:09:10.189Z,100.00
2023-08-21T00:11:37.303Z,100.00
2023-08-21T00:14:04.300Z,100.00
2023-08-21T00:16:32.585Z,100.00
2023-08-21T00:18:59.463Z,100.00
2023-08-21T00:21:26.746Z,100.00
2023-08-21T00:23:53.719Z,100.00
2023-08-21T00:26:20.914Z,100.00
2023-08-21T00:28:47.735Z,100.00
2023-08-21T00:31:15.055Z,100.00
2023-08-21T00:33:42.110Z,100.00
2023-08-21T00:36:09.272Z,100.00
2023-08-21T00:38:36.297Z,100.00
2023-08-21T00:41:03.647Z,100.00
2023-08-21T00:43:30.509Z,100.00
2023-08-21T00:45:58.176Z,100.00
2023-08-21T00:48:25.760Z,100.00
2023-08-21T00:50:53.215Z,100.00
2023-08-21T00:53:20.553Z,100.00
2023-08-21T00:55:48.175Z,100.00
2023-08-21T00:58:15.302Z,100.00
2023-08-21T01:00:45.045Z,100.00
2023-08-21T01:03:11.981Z,100.00
2023-08-21T01:05:39.465Z,100.00
2023-08-21T01:08:13.364Z,100.00
2023-08-21T01:11:07.410Z,100.00
2023-08-21T01:13:52.423Z,100.00
2023-08-21T01:16:22.579Z,100.00
2023-08-21T01:18:51.196Z,100.00
2023-08-21T01:21:18.777Z,100.00
2023-08-21T01:23:45.688Z,100.00
2023-08-21T01:26:13.140Z,100.00
2023-08-21T01:28:40.245Z,100.00
2023-08-21T01:31:20.162Z,100.00
2023-08-21T01:33:51.838Z,100.00
2023-08-21T01:36:19.285Z,100.00
2023-08-21T01:38:46.418Z,100.00
2023-08-21T01:41:13.638Z,100.00
2023-08-21T01:43:40.522Z,100.00
2023-08-21T01:46:07.983Z,100.00
2023-08-21T01:48:35.020Z,100.00
2023-08-21T01:51:03.743Z,100.00
2023-08-21T01:53:30.745Z,100.00
2023-08-21T01:55:57.945Z,100.00
2023-08-21T01:58:25.008Z,100.00
2023-08-21T02:00:52.303Z,100.00
2023-08-21T02:03:19.196Z,100.00
2023-08-21T02:05:46.673Z,100.00
2023-08-21T02:08:15.147Z,100.00
2023-08-21T02:10:52.662Z,100.00
2023-08-21T02:13:20.197Z,100.00
2023-08-21T02:15:47.498Z,100.00
2023-08-21T02:18:14.435Z,100.00
2023-08-21T02:20:42.198Z,100.00
2023-08-21T02:23:09.431Z,100.00
2023-08-21T02:25:36.569Z,100.00
2023-08-21T02:28:05.265Z,100.00
2023-08-21T02:30:32.530Z,100.00
2023-08-21T02:32:59.772Z,100.00
2023-08-21T02:35:27.008Z,100.00
2023-08-21T02:37:53.923Z,100.00
2023-08-21T02:40:21.120Z,100.00
2023-08-21T02:42:48.071Z,100.00
2023-08-21T02:45:15.318Z,100.00
2023-08-21T02:47:44.184Z,100.00
2023-08-21T02:50:11.878Z,100.00
2023-08-21T02:52:39.312Z,100.00
2023-08-21T02:55:07.080Z,100.00
2023-08-21T02:57:34.205Z,100.00
2023-08-21T03:00:01.695Z,100.00
2023-08-21T03:02:28.769Z,100.00
2023-08-21T03:04:56.176Z,100.00
2023-08-21T03:07:23.038Z,100.00
2023-08-21T03:09:50.277Z,100.00
2023-08-21T03:12:17.677Z,100.00
2023-08-21T03:14:44.801Z,100.00
2023-08-21T03:17:11.671Z,100.00
2023-08-21T03:19:38.917Z,100.00
2023-08-21T03:22:06.299Z,100.00
2023-08-21T03:24:33.751Z,100.00
2023-08-21T03:27:00.607Z,100.00
2023-08-21T03:29:27.854Z,100.00
2023-08-21T03:31:58.323Z,100.00
2023-08-21T03:34:25.639Z,100.00
2023-08-21T03:36:52.722Z,100.00
2023-08-21T03:39:19.997Z,100.00
2023-08-21T03:41:46.874Z,100.00
2023-08-21T03:44:14.036Z,100.00
2023-08-21T03:46:41.018Z,100.00
2023-08-21T03:49:08.297Z,100.00
2023-08-21T03:51:35.174Z,100.00
2023-08-21T03:54:02.400Z,100.00
2023-08-21T03:56:29.272Z,100.00
2023-08-21T03:58:57.148Z,100.00
2023-08-21T04:01:24.114Z,100.00
2023-08-21T04:03:51.333Z,100.00
2023-08-21T04:06:18.249Z,100.00
2023-08-21T04:08:45.428Z,100.00
2023-08-21T04:11:12.658Z,100.00
2023-08-21T04:13:39.832Z,100.00
2023-08-21T04:16:06.793Z,100.00
2023-08-21T04:18:41.689Z,100.00
2023-08-21T04:21:10.484Z,100.00
2023-08-21T04:23:37.728Z,100.00
2023-08-21T04:26:05.500Z,100.00
2023-08-21T04:28:32.998Z,100.00
2023-08-21T04:31:00.061Z,100.00
2023-08-21T04:33:29.073Z,100.00
2023-08-21T04:35:55.912Z,100.00
2023-08-21T04:38:23.203Z,100.00
2023-08-21T04:40:50.055Z,100.00
2023-08-21T04:43:17.183Z,100.00
2023-08-21T04:45:51.370Z,100.00
2023-08-21T04:48:18.620Z,100.00
2023-08-21T04:50:46.624Z,100.00
2023-08-21T04:53:14.262Z,100.00
2023-08-21T04:55:41.782Z,100.00
2023-08-21T04:58:09.504Z,100.00
2023-08-21T05:00:37.262Z,100.00
2023-08-21T05:03:04.985Z,100.00
2023-08-21T05:05:31.946Z,100.00
2023-08-21T05:07:59.123Z,100.00
2023-08-21T05:10:26.124Z,100.00
2023-08-21T05:12:53.251Z,100.00
2023-08-21T05:15:20.162Z,100.00
2023-08-21T05:17:47.242Z,100.00
2023-08-21T05:20:15.914Z,100.00
2023-08-21T05:22:43.302Z,100.00
2023-08-21T05:25:11.460Z,100.00
2023-08-21T05:27:38.651Z,100.00
2023-08-21T05:30:06.443Z,100.00
2023-08-21T05:32:33.684Z,100.00
2023-08-21T05:35:00.806Z,100.00
2023-08-21T05:37:28.248Z,100.00
2023-08-21T05:39:55.293Z,100.00
2023-08-21T05:42:22.410Z,100.00
2023-08-21T05:44:49.238Z,100.00
2023-08-21T05:47:16.426Z,100.00
2023-08-21T05:49:43.465Z,100.00
2023-08-21T05:52:10.688Z,100.00
2023-08-21T05:54:37.854Z,100.00
2023-08-21T05:57:05.207Z,100.00
2023-08-21T05:59:33.531Z,100.00
2023-08-21T06:02:00.851Z,100.00
2023-08-21T06:04:28.717Z,100.00
2023-08-21T06:06:56.112Z,100.00
2023-08-21T06:09:23.285Z,100.00
2023-08-21T06:11:50.561Z,100.00
2023-08-21T06:14:17.475Z,100.00
2023-08-21T06:16:46.376Z,100.00
2023-08-21T06:19:13.653Z,100.00
2023-08-21T06:21:40.839Z,100.00
2023-08-21T06:24:08.293Z,100.00
2023-08-21T06:26:36.224Z,100.00
2023-08-21T06:29:03.142Z,100.00
2023-08-21T06:31:30.884Z,100.00
2023-08-21T06:33:58.240Z,100.00
2023-08-21T06:36:25.545Z,100.00
2023-08-21T06:38:52.633Z,100.00
2023-08-21T06:41:19.861Z,100.00
2023-08-21T06:43:46.780Z,100.00
2023-08-21T06:46:14.271Z,100.00
2023-08-21T06:48:44.574Z,100.00
2023-08-21T06:51:15.445Z,100.00
2023-08-21T06:53:44.397Z,100.00
2023-08-21T06:56:11.659Z,100.00
2023-08-21T06:58:38.495Z,100.00
2023-08-21T07:01:05.920Z,100.00
2023-08-21T07:03:32.903Z,100.00
2023-08-21T07:06:01.374Z,100.00
2023-08-21T07:08:28.971Z,100.00
2023-08-21T07:10:56.267Z,100.00
2023-08-21T07:13:23.729Z,100.00
2023-08-21T07:15:54.896Z,100.00
2023-08-21T07:18:21.871Z,100.00
2023-08-21T07:20:49.201Z,100.00
2023-08-21T07:23:16.100Z,100.00
2023-08-21T07:25:43.889Z,100.00
2023-08-21T07:28:12.089Z,100.00
2023-08-21T07:30:39.731Z,100.00
2023-08-21T07:33:07.349Z,100.00
2023-08-21T07:35:34.646Z,100.00
2023-08-21T07:38:01.579Z,100.00
2023-08-21T07:40:28.883Z,100.00
2023-08-21T07:42:56.557Z,100.00
2023-08-21T07:45:23.866Z,100.00
2023-08-21T07:48:01.223Z,100.00
2023-08-21T07:50:36.261Z,99.90
2023-08-21T07:53:03.233Z,100.00
2023-08-21T07:55:30.362Z,100.00
2023-08-21T07:57:57.429Z,99.82
2023-08-21T08:00:24.759Z,97.01
2023-08-21T08:02:51.607Z,96.04
2023-08-21T08:05:18.881Z,93.28
2023-08-21T08:07:45.805Z,92.22
2023-08-21T08:10:12.969Z,93.05
2023-08-21T08:12:43.408Z,95.12
2023-08-21T08:15:11.257Z,92.86
2023-08-21T08:17:38.123Z,90.67
2023-08-21T08:20:08.759Z,87.38
2023-08-21T08:22:35.746Z,92.95
2023-08-21T08:25:03.185Z,93.24
2023-08-21T08:27:30.036Z,86.18
2023-08-21T08:29:57.182Z,81.73
2023-08-21T08:32:24.137Z,83.20
2023-08-21T08:34:51.351Z,86.26
2023-08-21T08:37:18.359Z,85.24
2023-08-21T08:39:47.606Z,80.49
2023-08-21T08:42:15.991Z,84.46
2023-08-21T08:44:44.745Z,84.43
2023-08-21T08:47:12.642Z,79.10
2023-08-21T08:49:39.977Z,82.10
2023-08-21T08:52:07.181Z,75.44
2023-08-21T08:54:36.634Z,78.89
2023-08-21T08:57:03.733Z,78.68
2023-08-21T08:59:34.304Z,78.66
2023-08-21T09:02:01.471Z,80.32
2023-08-21T09:04:28.573Z,76.63
2023-08-21T09:07:08.088Z,69.61
2023-08-21T09:09:45.862Z,67.76
2023-08-21T09:12:14.793Z,70.60
2023-08-21T09:14:43.398Z,69.53
2023-08-21T09:17:10.817Z,67.14
2023-08-21T09:19:38.466Z,70.82
2023-08-21T09:22:16.443Z,68.84
2023-08-21T09:25:06.047Z,67.51
2023-08-21T09:27:32.955Z,69.74
2023-08-21T09:30:00.120Z,67.29
2023-08-21T09:32:26.997Z,67.04
2023-08-21T09:34:54.225Z,65.20
2023-08-21T09:37:23.783Z,63.74
2023-08-21T09:39:50.977Z,62.32
2023-08-21T09:42:19.316Z,64.04
2023-08-21T09:44:52.559Z,65.67
2023-08-21T09:47:20.948Z,64.78
2023-08-21T09:49:48.680Z,64.92
2023-08-21T09:52:15.655Z,64.63
2023-08-21T09:54:43.822Z,59.31
2023-08-21T09:57:11.774Z,64.17
2023-08-21T09:59:42.422Z,56.68
2023-08-21T10:02:10.536Z,56.57
2023-08-21T10:04:41.614Z,57.42
2023-08-21T10:07:10.121Z,57.51
2023-08-21T10:09:39.875Z,53.34
2023-08-21T10:12:09.845Z,52.38
2023-08-21T10:14:37.577Z,53.40
2023-08-21T10:17:06.346Z,52.22
2023-08-21T10:19:33.550Z,51.43
2023-08-21T10:22:01.072Z,53.83
2023-08-21T10:24:29.961Z,55.57
2023-08-21T10:27:01.240Z,53.38
2023-08-21T10:29:28.619Z,53.38
2023-08-21T10:32:04.054Z,54.74
2023-08-21T10:34:36.450Z,49.95
2023-08-21T10:37:15.100Z,51.29
2023-08-21T10:39:56.836Z,50.04
2023-08-21T10:42:42.121Z,49.54
2023-08-21T10:45:13.657Z,48.80
2023-08-21T10:47:40.757Z,48.91
2023-08-21T10:50:12.176Z,48.11
2023-08-21T10:52:46.162Z,47.90
2023-08-21T10:55:15.394Z,48.62
2023-08-21T10:57:43.042Z,44.99
2023-08-21T11:00:15.787Z,48.73
2023-08-21T11:02:43.589Z,45.72
2023-08-21T11:05:12.187Z,47.44
2023-08-21T11:07:45.204Z,49.59
2023-08-21T11:10:23.545Z,45.26
2023-08-21T11:13:03.689Z,44.77
2023-08-21T11:15:31.236Z,46.40
2023-08-21T11:18:00.595Z,46.39
2023-08-21T11:20:35.568Z,43.35
2023-08-21T11:23:06.430Z,43.00
2023-08-21T11:25:43.131Z,43.31
2023-08-21T11:28:12.844Z,43.21
2023-08-21T11:30:40.102Z,43.94
2023-08-21T11:33:11.905Z,43.56
2023-08-21T11:35:40.025Z,43.32
2023-08-21T11:38:10.180Z,43.11
2023-08-21T11:40:37.937Z,44.51
2023-08-21T11:43:06.759Z,44.41
2023-08-21T11:45:45.249Z,43.74
2023-08-21T11:48:16.601Z,43.59
2023-08-21T11:50:45.815Z,41.83
2023-08-21T11:53:13.352Z,41.61
2023-08-21T11:55:41.123Z,43.89
2023-08-21T11:58:08.584Z,45.00
2023-08-21T12:00:35.841Z,44.93
2023-08-21T12:03:05.003Z,42.80
2023-08-21T12:05:32.352Z,44.20
2023-08-21T12:07:59.224Z,43.67
2023-08-21T12:10:30.463Z,42.05
2023-08-21T12:12:57.864Z,44.64
2023-08-21T12:15:25.190Z,42.72
2023-08-21T12:17:52.132Z,43.11
2023-08-21T12:20:19.423Z,40.39
2023-08-21T12:22:46.267Z,40.57
2023-08-21T12:25:14.774Z,40.78
2023-08-21T12:27:41.877Z,39.61
2023-08-21T12:30:09.569Z,39.55
2023-08-21T12:32:36.450Z,39.51
2023-08-21T12:35:05.615Z,42.02
2023-08-21T12:37:32.905Z,38.68
2023-08-21T12:40:00.189Z,39.00
2023-08-21T12:42:27.161Z,38.24
2023-08-21T12:44:54.402Z,40.91
2023-08-21T12:47:21.309Z,40.12
2023-08-21T12:49:48.714Z,40.42
2023-08-21T12:52:15.880Z,40.55
2023-08-21T12:54:43.402Z,41.20
2023-08-21T12:57:12.511Z,38.17
2023-08-21T12:59:40.035Z,37.74
2023-08-21T13:02:07.017Z,36.50
2023-08-21T13:04:34.628Z,36.16
2023-08-21T13:07:02.304Z,35.02
2023-08-21T13:09:30.165Z,33.94
2023-08-21T13:11:57.112Z,34.45
2023-08-21T13:14:24.226Z,33.65
2023-08-21T13:16:51.153Z,34.29
2023-08-21T13:19:18.406Z,34.17
2023-08-21T13:21:45.813Z,34.54
2023-08-21T13:24:13.542Z,32.37
2023-08-21T13:26:40.538Z,34.05
2023-08-21T13:29:10.480Z,30.60
2023-08-21T13:31:37.487Z,31.46
2023-08-21T13:34:04.777Z,29.90
2023-08-21T13:36:31.730Z,30.92
2023-08-21T13:38:58.939Z,30.99
2023-08-21T13:41:26.001Z,27.35
2023-08-21T13:43:55.571Z,28.42
2023-08-21T13:46:22.685Z,27.79
2023-08-21T13:48:49.837Z,27.36
2023-08-21T13:51:18.516Z,25.02
2023-08-21T13:53:47.119Z,23.38
2023-08-21T13:56:14.001Z,22.97
2023-08-21T13:58:41.141Z,21.13
2023-08-21T14:01:09.291Z,21.85
2023-08-21T14:03:36.591Z,20.46
2023-08-21T14:06:04.052Z,20.08
2023-08-21T14:08:32.184Z,19.60
2023-08-21T14:10:59.109Z,20.51
2023-08-21T14:13:26.306Z,21.36
2023-08-21T14:15:54.204Z,21.27
2023-08-21T14:18:21.623Z,20.59
2023-08-21T14:20:48.614Z,20.36
2023-08-21T14:23:15.787Z,21.23
2023-08-21T14:25:42.753Z,19.33
2023-08-21T14:28:09.879Z,19.59
2023-08-21T14:30:36.845Z,19.13
2023-08-21T14:33:04.506Z,19.27
2023-08-21T14:35:31.521Z,19.18
2023-08-21T14:37:58.937Z,19.52
2023-08-21T14:40:27.342Z,19.56
2023-08-21T14:42:54.820Z,18.41
2023-08-21T14:45:22.264Z,18.91
2023-08-21T14:47:49.714Z,19.93
2023-08-21T14:50:16.595Z,19.52
2023-08-21T14:52:43.806Z,19.71
2023-08-21T14:55:10.776Z,20.25
2023-08-21T14:57:37.910Z,20.90
2023-08-21T15:00:06.329Z,20.08
2023-08-21T15:02:35.853Z,20.88
2023-08-21T15:05:07.110Z,19.95
2023-08-21T15:07:34.321Z,20.55
2023-08-21T15:10:01.511Z,19.67
2023-08-21T15:12:28.750Z,19.79
2023-08-21T15:14:55.685Z,20.20
2023-08-21T15:17:23.264Z,21.66
2023-08-21T15:19:50.472Z,21.27
2023-08-21T15:22:20.729Z,20.66
2023-08-21T15:24:47.803Z,21.57
2023-08-21T15:27:15.108Z,21.52
2023-08-21T15:29:42.005Z,20.55
2023-08-21T15:32:09.406Z,20.01
2023-08-21T15:34:36.305Z,20.09
2023-08-21T15:37:03.549Z,20.62
2023-08-21T15:39:31.175Z,21.31
2023-08-21T15:41:58.368Z,21.02
2023-08-21T15:44:26.492Z,21.55
2023-08-21T15:47:05.637Z,21.56
2023-08-21T15:49:40.462Z,21.80
2023-08-21T15:52:09.081Z,21.74
2023-08-21T15:54:35.965Z,22.95
2023-08-21T15:57:04.009Z,25.16
2023-08-21T15:59:31.346Z,27.69
2023-08-21T16:01:59.435Z,30.55
2023-08-21T16:04:26.780Z,34.27
2023-08-21T16:06:53.967Z,36.27
2023-08-21T16:09:20.844Z,38.83
2023-08-21T16:11:48.008Z,40.60
2023-08-21T16:14:15.026Z,43.33
2023-08-21T16:16:44.645Z,44.07
2023-08-21T16:19:12.759Z,46.00
2023-08-21T16:21:39.932Z,47.09
2023-08-21T16:24:07.010Z,44.62
2023-08-21T16:26:34.157Z,46.71
2023-08-21T16:29:01.146Z,46.07
2023-08-21T16:31:28.392Z,48.18
2023-08-21T16:33:55.306Z,48.79
2023-08-21T16:36:22.507Z,51.24
2023-08-21T16:38:49.408Z,50.72
2023-08-21T16:41:16.578Z,52.80
2023-08-21T16:43:43.597Z,52.09
2023-08-21T16:46:11.310Z,53.81
2023-08-21T16:48:38.337Z,52.24
2023-08-21T16:51:05.698Z,55.95
2023-08-21T16:53:32.587Z,62.46
2023-08-21T16:55:59.725Z,59.39
2023-08-21T16:58:26.737Z,58.04
2023-08-21T17:00:56.917Z,59.02
2023-08-21T17:03:24.134Z,59.57
2023-08-21T17:05:51.407Z,60.01
2023-08-21T17:08:18.313Z,61.52
2023-08-21T17:10:45.412Z,60.16
2023-08-21T17:13:12.287Z,60.70
2023-08-21T17:15:39.637Z,59.95
2023-08-21T17:18:06.963Z,60.46
2023-08-21T17:20:35.098Z,63.23
2023-08-21T17:23:01.983Z,63.65
2023-08-21T17:25:29.228Z,63.18
2023-08-21T17:27:56.134Z,65.62
2023-08-21T17:30:23.424Z,64.38
2023-08-21T17:32:50.430Z,68.21
2023-08-21T17:35:20.027Z,68.16
2023-08-21T17:37:46.919Z,69.79
2023-08-21T17:40:14.021Z,69.06
2023-08-21T17:42:41.291Z,69.92
2023-08-21T17:45:09.153Z,70.37
2023-08-21T17:47:36.040Z,73.17
2023-08-21T17:50:03.739Z,74.12
2023-08-21T17:52:30.825Z,73.43
2023-08-21T17:54:57.933Z,75.04
2023-08-21T17:57:24.969Z,75.42
2023-08-21T17:59:52.274Z,76.86
2023-08-21T18:02:27.365Z,76.31
2023-08-21T18:04:55.368Z,75.96
2023-08-21T18:07:22.676Z,79.68
2023-08-21T18:09:49.863Z,79.66
2023-08-21T18:12:16.797Z,76.76
2023-08-21T18:14:43.968Z,78.79
2023-08-21T18:17:14.637Z,81.20
2023-08-21T18:19:47.749Z,81.97
2023-08-21T18:22:15.300Z,82.78
2023-08-21T18:24:42.594Z,80.58
2023-08-21T18:27:10.718Z,81.82
2023-08-21T18:29:41.020Z,86.05
2023-08-21T18:32:10.405Z,85.66
2023-08-21T18:34:40.864Z,86.64
2023-08-21T18:37:09.339Z,88.51
2023-08-21T18:39:36.824Z,90.20
2023-08-21T18:42:04.053Z,91.37
2023-08-21T18:44:31.265Z,95.22
2023-08-21T18:46:59.583Z,97.23
2023-08-21T18:49:26.930Z,98.91
2023-08-21T18:51:54.916Z,99.84
2023-08-21T18:54:25.059Z,99.91
2023-08-21T18:56:53.394Z,100.00
2023-08-21T18:59:21.020Z,100.00
2023-08-21T19:01:48.113Z,100.00
2023-08-21T19:04:15.467Z,100.00
2023-08-21T19:06:51.800Z,100.00
2023-08-21T19:09:20.451Z,100.00
2023-08-21T19:11:47.446Z,100.00
2023-08-21T19:14:14.600Z,100.00
2023-08-21T19:16:41.500Z,100.00
2023-08-21T19:19:08.664Z,100.00
2023-08-21T19:21:35.599Z,100.00
2023-08-21T19:24:02.840Z,100.00
2023-08-21T19:26:30.047Z,100.00
2023-08-21T19:28:57.343Z,100.00
2023-08-21T19:31:24.374Z,100.00
2023-08-21T19:33:51.555Z,100.00
2023-08-21T19:36:19.158Z,100.00
2023-08-21T19:38:56.117Z,100.00
2023-08-21T19:41:23.171Z,100.00
2023-08-21T19:43:50.275Z,100.00
2023-08-21T19:46:17.281Z,100.00
2023-08-21T19:48:44.528Z,100.00
2023-08-21T19:51:11.968Z,100.00
2023-08-21T19:53:39.112Z,100.00
2023-08-21T19:56:06.000Z,100.00
2023-08-21T19:58:33.156Z,100.00
2023-08-21T20:01:00.058Z,100.00
2023-08-21T20:03:27.486Z,100.00
2023-08-21T20:06:03.086Z,100.00
2023-08-21T20:08:31.705Z,100.00
2023-08-21T20:10:59.874Z,100.00
2023-08-21T20:13:27.923Z,100.00
2023-08-21T20:15:55.946Z,100.00
2023-08-21T20:18:25.229Z,100.00
2023-08-21T20:20:52.204Z,100.00
2023-08-21T20:23:19.519Z,100.00
2023-08-21T20:25:49.864Z,100.00
2023-08-21T20:28:17.075Z,100.00
2023-08-21T20:30:43.995Z,100.00
2023-08-21T20:33:11.264Z,100.00
2023-08-21T20:35:38.136Z,100.00
2023-08-21T20:38:06.325Z,100.00
2023-08-21T20:40:33.356Z,100.00
2023-08-21T20:43:00.620Z,100.00
2023-08-21T20:45:28.398Z,100.00
2023-08-21T20:47:56.144Z,100.00
2023-08-21T20:50:23.288Z,100.00
2023-08-21T20:52:50.540Z,100.00
2023-08-21T20:55:17.556Z,100.00
2023-08-21T20:57:45.037Z,100.00
2023-08-21T21:00:14.883Z,100.00
2023-08-21T21:02:42.213Z,100.00
2023-08-21T21:05:11.255Z,100.00
2023-08-21T21:07:39.456Z,100.00
2023-08-21T21:10:07.545Z,100.00
2023-08-21T21:12:35.351Z,100.00
2023-08-21T21:15:02.461Z,100.00
2023-08-21T21:17:29.707Z,100.00
2023-08-21T21:19:56.765Z,100.00
2023-08-21T21:22:25.209Z,100.00
2023-08-21T21:24:52.131Z,100.00
2023-08-21T21:27:19.330Z,100.00
2023-08-21T21:29:46.332Z,100.00
2023-08-21T21:32:16.304Z,100.00
2023-08-21T21:34:43.363Z,100.00
2023-08-21T21:37:10.730Z,100.00
2023-08-21T21:39:37.730Z,100.00
2023-08-21T21:42:05.144Z,100.00
2023-08-21T21:44:31.986Z,100.00
2023-08-21T21:46:59.220Z,100.00
2023-08-21T21:49:26.228Z,100.00
2023-08-21T21:51:53.434Z,100.00
2023-08-21T21:54:20.353Z,100.00
2023-08-21T21:56:47.675Z,100.00
2023-08-21T21:59:14.561Z,100.00
2023-08-21T22:01:41.925Z,100.00
2023-08-21T22:04:08.942Z,100.00
2023-08-21T22:06:40.845Z,100.00
2023-08-21T22:09:07.896Z,100.00
2023-08-21T22:11:35.017Z,100.00
2023-08-21T22:14:01.928Z,100.00
2023-08-21T22:16:29.839Z,100.00
2023-08-21T22:18:56.783Z,100.00
2023-08-21T22:21:23.941Z,100.00
2023-08-21T22:23:50.846Z,100.00
2023-08-21T22:26:17.937Z,100.00
2023-08-21T22:28:44.812Z,100.00
2023-08-21T22:31:12.005Z,100.00
2023-08-21T22:33:38.840Z,100.00
2023-08-21T22:36:06.552Z,100.00
2023-08-21T22:38:33.868Z,100.00
2023-08-21T22:41:04.861Z,100.00
2023-08-21T22:43:31.825Z,100.00
2023-08-21T22:45:59.033Z,100.00
2023-08-21T22:48:26.049Z,100.00
2023-08-21T22:50:53.210Z,100.00
2023-08-21T22:53:20.063Z,100.00
2023-08-21T22:55:55.986Z,100.00
2023-08-21T22:58:22.871Z,100.00
2023-08-21T23:00:49.994Z,100.00
2023-08-21T23:03:16.901Z,100.00
2023-08-21T23:05:58.043Z,100.00
2023-08-21T23:08:25.732Z,100.00
2023-08-21T23:10:53.036Z,100.00
2023-08-21T23:13:20.171Z,100.00
2023-08-21T23:15:48.628Z,100.00
2023-08-21T23:18:16.527Z,100.00
2023-08-21T23:20:44.340Z,100.00
2023-08-21T23:23:11.316Z,100.00
2023-08-21T23:25:38.523Z,100.00
2023-08-21T23:28:05.829Z,100.00
2023-08-21T23:30:33.200Z,100.00
2023-08-21T23:33:00.212Z,100.00
2023-08-21T23:35:27.453Z,100.00
2023-08-21T23:37:54.338Z,100.00
2023-08-21T23:40:21.783Z,100.00
2023-08-21T23:42:48.696Z,100.00
2023-08-21T23:45:16.451Z,100.00
2023-08-21T23:47:45.124Z,100.00
2023-08-21T23:50:13.913Z,100.00
2023-08-21T23:52:40.912Z,100.00
2023-08-21T23:55:09.064Z,100.00
2023-08-21T23:57:36.135Z,100.00
